Time;durP1;ratioP1;P1;durP2;ratioP2;P2;SDS_P1;SDS_P2;PMS_P1;PMS_P2;Temp;Humidity;BMP_temperature;BMP_pressure;BME280_temperature;BME280_humidity;BME280_pressure;Samples;Min_cycle;Max_cycle;Signal;HPM_P1;HPM_P2
2021/04/30 00:01:08;;;;;;;5.05;4.55;;;8.90;1.00;;;;;;5035618;28;20069;-81
2021/04/30 00:03:34;;;;;;;5.03;4.63;;;8.90;1.00;;;;;;5031374;28;20030;-79
2021/04/30 00:06:00;;;;;;;6.60;5.20;;;8.90;1.00;;;;;;5040289;28;20064;-80
2021/04/30 00:08:26;;;;;;;6.95;5.13;;;8.80;1.00;;;;;;5039497;28;20040;-83
2021/04/30 00:10:51;;;;;;;5.18;4.70;;;8.80;1.00;;;;;;5036015;28;20033;-81
2021/04/30 00:13:17;;;;;;;7.25;5.30;;;8.80;1.00;;;;;;5029024;28;20493;-78
2021/04/30 00:15:45;;;;;;;5.82;5.22;;;8.80;1.00;;;;;;5041671;28;20033;-79
2021/04/30 00:18:10;;;;;;;5.40;4.90;;;8.80;1.00;;;;;;5042340;28;20009;-78
2021/04/30 00:20:40;;;;;;;5.35;4.90;;;8.80;1.00;;;;;;5036540;28;20040;-80
2021/04/30 00:23:12;;;;;;;6.18;5.68;;;8.80;1.00;;;;;;5041766;28;20021;-82
2021/04/30 00:25:40;;;;;;;5.70;5.13;;;8.70;1.00;;;;;;5032471;28;20006;-83
2021/04/30 00:28:06;;;;;;;5.95;5.25;;;8.70;1.00;;;;;;5048655;28;20060;-78
2021/04/30 00:30:32;;;;;;;6.60;6.07;;;8.70;1.00;;;;;;5049855;28;20059;-79
2021/04/30 00:32:58;;;;;;;5.80;5.30;;;8.70;1.00;;;;;;5044345;28;20021;-81
2021/04/30 00:35:25;;;;;;;5.93;5.53;;;8.70;1.00;;;;;;5049869;28;20080;-78
2021/04/30 00:37:51;;;;;;;5.75;5.25;;;8.60;1.00;;;;;;5030169;28;20029;-78
2021/04/30 00:40:17;;;;;;;6.60;5.75;;;8.50;1.00;;;;;;5047518;28;20047;-81
2021/04/30 00:42:42;;;;;;;6.20;5.70;;;8.60;1.00;;;;;;5052102;28;20017;-81
2021/04/30 00:45:13;;;;;;;5.75;5.25;;;8.60;1.00;;;;;;5048587;28;20071;-80
2021/04/30 00:47:39;;;;;;;9.57;6.22;;;8.60;1.00;;;;;;5036010;28;20084;-79
2021/04/30 00:50:07;;;;;;;6.40;5.80;;;8.60;1.00;;;;;;5038395;28;20022;-79
2021/04/30 00:52:35;;;;;;;6.60;6.05;;;8.60;1.00;;;;;;5045006;28;20056;-78
2021/04/30 00:55:02;;;;;;;6.95;6.28;;;8.60;1.00;;;;;;5057149;28;20026;-80
2021/04/30 00:57:28;;;;;;;6.65;6.05;;;8.50;1.00;;;;;;5040069;28;20036;-80
2021/04/30 00:59:54;;;;;;;6.65;6.00;;;8.60;1.00;;;;;;5037284;28;20026;-80
2021/04/30 01:02:21;;;;;;;7.40;5.57;;;8.70;1.00;;;;;;5030637;28;20484;-80
2021/04/30 01:04:47;;;;;;;6.53;5.93;;;8.70;1.00;;;;;;5037213;28;20013;-79
2021/04/30 01:07:13;;;;;;;8.38;6.35;;;8.70;1.00;;;;;;5045038;28;20033;-80
2021/04/30 01:09:38;;;;;;;6.43;5.88;;;8.60;1.00;;;;;;5036907;28;20029;-80
2021/04/30 01:12:05;;;;;;;6.20;5.70;;;8.50;1.00;;;;;;5032986;28;20022;-80
2021/04/30 01:14:31;;;;;;;6.32;5.72;;;8.50;1.00;;;;;;5039622;28;20029;-81
2021/04/30 01:16:56;;;;;;;6.97;6.28;;;8.50;1.00;;;;;;5057820;28;20067;-83
2021/04/30 01:19:25;;;;;;;6.05;5.55;;;8.40;1.00;;;;;;5034997;28;20060;-81
2021/04/30 01:21:56;;;;;;;6.22;5.72;;;8.40;1.00;;;;;;5031656;28;20105;-78
2021/04/30 01:24:23;;;;;;;6.32;5.80;;;8.40;1.00;;;;;;5019146;28;20093;-79
2021/04/30 01:26:51;;;;;;;6.75;6.10;;;8.40;1.00;;;;;;5025383;28;20520;-79
2021/04/30 01:29:17;;;;;;;7.57;6.88;;;8.50;1.00;;;;;;5042210;28;20098;-81
2021/04/30 01:31:43;;;;;;;8.30;6.03;;;8.40;1.00;;;;;;5048691;28;20037;-82
2021/04/30 01:34:10;;;;;;;7.45;6.72;;;8.40;1.00;;;;;;5043627;28;20021;-81
2021/04/30 01:36:36;;;;;;;9.15;6.28;;;8.40;99.90;;;;;;5037261;28;20036;-79
2021/04/30 01:39:07;;;;;;;7.95;7.20;;;8.40;1.00;;;;;;5030297;28;20029;-78
2021/04/30 01:41:34;;;;;;;6.85;6.25;;;8.40;1.00;;;;;;5029170;28;20033;-79
2021/04/30 01:44:01;;;;;;;9.10;6.50;;;8.40;99.90;;;;;;5026532;28;20389;-78
2021/04/30 01:46:27;;;;;;;8.60;6.40;;;8.40;1.00;;;;;;5038540;28;20416;-78
2021/04/30 01:48:52;;;;;;;7.45;6.75;;;8.40;99.90;;;;;;5039743;28;20127;-79
2021/04/30 01:51:18;;;;;;;7.28;6.68;;;8.40;1.00;;;;;;5031573;28;20030;-81
2021/04/30 01:53:44;;;;;;;7.65;6.95;;;8.40;1.00;;;;;;5049738;28;20081;-79
2021/04/30 01:56:12;;;;;;;8.27;6.80;;;8.40;1.00;;;;;;5036118;28;20017;-79
2021/04/30 01:58:38;;;;;;;8.18;6.68;;;8.30;1.00;;;;;;5025753;28;20027;-80
2021/04/30 02:01:05;;;;;;;7.25;6.60;;;8.40;1.00;;;;;;5031734;28;20034;-77
2021/04/30 02:03:31;;;;;;;7.65;6.93;;;8.40;99.90;;;;;;5045247;28;20045;-79
2021/04/30 02:05:57;;;;;;;7.97;7.05;;;8.40;99.90;;;;;;5032046;28;20026;-80
2021/04/30 02:08:23;;;;;;;7.53;6.85;;;8.40;99.90;;;;;;5038919;28;20420;-80
2021/04/30 02:10:50;;;;;;;8.00;7.30;;;8.50;99.90;;;;;;5039308;28;20026;-79
2021/04/30 02:13:19;;;;;;;9.13;7.93;;;8.40;99.90;;;;;;5039209;28;20385;-80
2021/04/30 02:15:51;;;;;;;9.70;8.25;;;8.40;99.90;;;;;;5040616;28;20080;-80
2021/04/30 02:18:17;;;;;;;7.72;6.90;;;8.30;99.90;;;;;;5033381;28;20072;-79
2021/04/30 02:20:44;;;;;;;7.65;6.95;;;8.40;99.90;;;;;;5032256;28;20037;-79
2021/04/30 02:23:10;;;;;;;9.00;7.95;;;8.40;99.90;;;;;;5046067;28;20024;-84
2021/04/30 02:25:35;;;;;;;9.07;7.32;;;8.50;99.90;;;;;;5051112;28;20069;-81
2021/04/30 02:28:02;;;;;;;7.60;6.90;;;8.50;99.90;;;;;;5049376;28;20014;-82
2021/04/30 02:30:31;;;;;;;8.43;7.40;;;8.50;1.00;;;;;;5045824;28;20053;-83
2021/04/30 02:32:57;;;;;;;8.38;7.68;;;8.40;1.00;;;;;;5060046;28;20040;-84
2021/04/30 02:35:26;;;;;;;8.20;7.50;;;8.40;1.00;;;;;;5045640;28;20026;-79
2021/04/30 02:37:53;;;;;;;8.63;7.70;;;8.30;1.00;;;;;;5043093;28;20503;-79
2021/04/30 02:40:21;;;;;;;7.70;6.97;;;8.30;37.50;;;;;;5041790;28;20037;-80
2021/04/30 02:42:47;;;;;;;8.32;7.53;;;8.40;67.10;;;;;;5041134;28;20028;-80
2021/04/30 02:45:15;;;;;;;8.82;7.90;;;8.40;13.50;;;;;;5027301;28;20087;-80
2021/04/30 02:47:45;;;;;;;10.20;8.32;;;8.40;1.00;;;;;;5030365;28;20108;-80
2021/04/30 02:50:15;;;;;;;8.57;7.67;;;8.40;1.00;;;;;;5032954;28;20021;-79
2021/04/30 02:52:41;;;;;;;8.68;7.88;;;8.40;1.00;;;;;;5032533;28;20287;-81
2021/04/30 02:55:07;;;;;;;8.88;7.60;;;8.50;1.00;;;;;;5031781;28;20030;-80
2021/04/30 02:57:33;;;;;;;9.60;8.70;;;8.30;1.00;;;;;;5034852;28;20040;-79
2021/04/30 03:00:04;;;;;;;9.48;8.63;;;8.20;1.00;;;;;;5039344;28;20029;-79
2021/04/30 03:02:30;;;;;;;8.73;7.93;;;8.00;19.10;;;;;;5027578;28;20426;-80
2021/04/30 03:04:56;;;;;;;9.48;8.45;;;8.00;51.00;;;;;;5036813;28;20022;-79
2021/04/30 03:07:22;;;;;;;9.52;8.70;;;8.00;97.40;;;;;;5040821;28;20033;-81
2021/04/30 03:09:47;;;;;;;9.18;8.25;;;7.90;88.00;;;;;;5033492;28;20441;-81
2021/04/30 03:12:13;;;;;;;10.27;9.38;;;7.90;99.90;;;;;;5036464;28;20025;-80
2021/04/30 03:14:38;;;;;;;9.63;8.35;;;7.90;99.90;;;;;;5046142;28;20036;-81
2021/04/30 03:17:04;;;;;;;9.50;8.32;;;7.90;99.90;;;;;;5055038;28;20029;-80
2021/04/30 03:19:30;;;;;;;10.15;8.90;;;7.90;99.90;;;;;;5041346;28;20595;-80
2021/04/30 03:21:55;;;;;;;9.57;8.68;;;7.90;99.90;;;;;;5044774;28;20052;-79
2021/04/30 03:24:21;;;;;;;10.70;9.60;;;7.90;99.90;;;;;;5033562;28;20028;-80
2021/04/30 03:26:48;;;;;;;10.10;9.13;;;8.00;99.90;;;;;;5038827;28;20102;-78
2021/04/30 03:29:14;;;;;;;10.25;9.30;;;8.00;93.10;;;;;;5033569;28;20082;-83
2021/04/30 03:31:40;;;;;;;9.02;8.32;;;8.00;99.90;;;;;;5046107;28;20045;-82
2021/04/30 03:34:07;;;;;;;10.00;9.00;;;8.10;19.10;;;;;;5046831;28;20040;-81
2021/04/30 03:36:33;;;;;;;13.30;9.55;;;8.10;11.00;;;;;;5031152;28;20032;-80
2021/04/30 03:39:02;;;;;;;8.88;8.05;;;8.10;10.10;;;;;;5036883;28;20034;-84
2021/04/30 03:41:29;;;;;;;11.98;8.60;;;8.10;11.10;;;;;;5051802;28;20029;-81
2021/04/30 03:43:55;;;;;;;10.70;9.05;;;8.10;4.50;;;;;;5047041;28;20033;-81
2021/04/30 03:46:23;;;;;;;10.25;8.70;;;8.10;12.70;;;;;;5053072;28;20017;-80
2021/04/30 03:48:49;;;;;;;9.98;9.00;;;8.20;10.10;;;;;;5038637;28;20022;-82
2021/04/30 03:51:15;;;;;;;10.57;9.23;;;8.10;1.00;;;;;;5059072;28;20022;-80
2021/04/30 03:53:41;;;;;;;12.07;8.23;;;8.10;24.60;;;;;;5038235;28;20029;-79
2021/04/30 03:56:06;;;;;;;9.73;8.20;;;8.10;1.00;;;;;;5041625;28;20030;-78
2021/04/30 03:58:32;;;;;;;9.10;8.20;;;8.10;1.00;;;;;;5040332;28;20026;-78
2021/04/30 04:01:03;;;;;;;9.80;8.80;;;8.10;1.00;;;;;;5031838;28;20026;-80
2021/04/30 04:03:29;;;;;;;8.63;7.82;;;8.10;1.00;;;;;;5035329;28;20030;-79
2021/04/30 04:05:55;;;;;;;9.50;8.60;;;8.10;1.00;;;;;;5042347;28;20037;-79
2021/04/30 04:08:21;;;;;;;9.98;7.97;;;8.10;1.00;;;;;;5063861;28;20018;-80
2021/04/30 04:10:47;;;;;;;9.27;8.27;;;8.10;1.00;;;;;;5049734;28;20124;-78
2021/04/30 04:13:18;;;;;;;9.80;8.73;;;8.10;1.00;;;;;;5046913;28;20025;-80
2021/04/30 04:15:44;;;;;;;;;;;8.20;1.00;;;;;;5045445;28;20370;-79
2021/04/30 04:18:10;;;;;;;10.20;8.02;;;8.10;1.00;;;;;;5046216;28;19989;-80
2021/04/30 04:20:36;;;;;;;8.90;8.00;;;8.20;1.00;;;;;;5040569;28;20528;-79
2021/04/30 04:23:02;;;;;;;9.32;8.40;;;8.20;1.00;;;;;;5040963;28;20009;-79
2021/04/30 04:25:31;;;;;;;10.05;9.07;;;8.20;1.00;;;;;;5043134;28;20145;-80
2021/04/30 04:27:57;;;;;;;9.73;8.75;;;8.20;1.00;;;;;;5039465;28;20022;-80
2021/04/30 04:30:24;;;;;;;11.05;8.82;;;8.30;1.00;;;;;;5043147;28;20075;-81
2021/04/30 04:32:51;;;;;;;10.02;9.13;;;8.60;1.00;;;;;;5035566;28;20287;-80
2021/04/30 04:35:17;;;;;;;10.10;8.35;;;8.70;99.90;;;;;;5042142;28;20052;-77
2021/04/30 04:37:43;;;;;;;11.75;9.43;;;8.60;99.90;;;;;;5035092;28;20013;-79
2021/04/30 04:40:10;;;;;;;9.95;8.77;;;8.60;99.90;;;;;;5023702;28;20038;-80
2021/04/30 04:42:36;;;;;;;11.80;8.65;;;8.60;99.90;;;;;;5050077;28;20021;-79
2021/04/30 04:45:03;;;;;;;10.52;9.57;;;8.60;99.90;;;;;;5065234;28;20032;-81
2021/04/30 04:47:29;;;;;;;10.35;9.32;;;8.60;99.90;;;;;;5048986;28;20052;-81
2021/04/30 04:49:54;;;;;;;9.52;8.60;;;8.70;99.90;;;;;;5043598;28;20037;-81
2021/04/30 04:52:20;;;;;;;9.48;8.55;;;8.80;99.90;;;;;;5044027;28;20048;-81
2021/04/30 04:54:45;;;;;;;10.13;9.18;;;8.70;99.90;;;;;;5032571;28;20033;-79
2021/04/30 04:57:11;;;;;;;12.93;10.32;;;8.80;99.90;;;;;;5043787;28;20056;-80
2021/04/30 04:59:37;;;;;;;10.95;9.93;;;8.80;99.90;;;;;;5047956;28;20565;-81
2021/04/30 05:02:05;;;;;;;12.10;8.98;;;8.80;99.90;;;;;;5044845;28;20037;-81
2021/04/30 05:04:30;;;;;;;10.32;9.43;;;8.50;99.90;;;;;;5045781;28;20393;-80
2021/04/30 05:06:56;;;;;;;11.63;10.43;;;8.60;99.90;;;;;;5045668;28;20052;-81
2021/04/30 05:09:22;;;;;;;12.65;11.30;;;8.40;99.90;;;;;;5042202;28;20099;-79
2021/04/30 05:11:48;;;;;;;10.38;9.10;;;8.40;99.90;;;;;;5035297;28;20026;-82
2021/04/30 05:14:13;;;;;;;10.57;9.43;;;8.40;1.00;;;;;;5042111;28;20473;-82
2021/04/30 05:16:39;;;;;;;11.73;9.95;;;8.70;99.90;;;;;;5032845;28;20034;-79
2021/04/30 05:19:05;;;;;;;14.77;10.02;;;8.80;99.90;;;;;;5036404;28;20017;-82
2021/04/30 05:21:31;;;;;;;11.73;9.45;;;8.90;99.90;;;;;;5034229;28;20485;-79
2021/04/30 05:23:59;;;;;;;10.18;9.10;;;8.80;99.90;;;;;;5043215;28;20097;-81
2021/04/30 05:26:29;;;;;;;11.65;10.38;;;8.90;99.90;;;;;;5045306;28;20025;-81
2021/04/30 05:28:57;;;;;;;10.60;9.52;;;8.90;99.90;;;;;;5039925;28;20028;-80
2021/04/30 05:31:23;;;;;;;11.73;9.90;;;9.00;99.90;;;;;;5044214;28;20029;-80
2021/04/30 05:33:48;;;;;;;10.23;9.23;;;9.00;99.90;;;;;;5042595;28;20021;-78
2021/04/30 05:36:14;;;;;;;11.13;10.02;;;9.10;99.90;;;;;;5041495;28;20036;-80
2021/04/30 05:38:39;;;;;;;11.45;10.18;;;9.10;99.90;;;;;;5034984;28;20083;-79
2021/04/30 05:41:05;;;;;;;11.43;9.95;;;9.00;99.90;;;;;;5052074;28;20029;-81
2021/04/30 05:43:31;;;;;;;11.48;9.95;;;9.00;99.90;;;;;;5043021;28;20033;-80
2021/04/30 05:45:57;;;;;;;10.10;9.10;;;9.20;99.90;;;;;;5035549;28;20030;-81
2021/04/30 05:48:22;;;;;;;11.70;9.68;;;9.20;99.90;;;;;;5054085;23;20040;-75
2021/04/30 05:50:48;;;;;;;12.70;9.60;;;9.20;99.90;;;;;;5062132;28;20059;-77
2021/04/30 05:53:14;;;;;;;10.70;9.50;;;9.00;1.00;;;;;;5064372;28;20017;-76
2021/04/30 05:55:39;;;;;;;12.98;10.20;;;9.10;1.00;;;;;;5065507;28;20368;-75
2021/04/30 05:58:06;;;;;;;10.43;9.50;;;9.00;1.00;;;;;;5068609;28;20097;-76
2021/04/30 06:00:31;;;;;;;11.68;10.52;;;9.00;1.00;;;;;;5050540;28;20029;-76
2021/04/30 06:02:57;;;;;;;13.82;9.82;;;9.20;1.00;;;;;;5044206;28;20028;-76
2021/04/30 06:05:22;;;;;;;10.93;9.88;;;9.20;99.90;;;;;;5059207;28;20025;-76
2021/04/30 06:07:48;;;;;;;12.50;10.20;;;9.40;99.90;;;;;;5050722;28;20424;-76
2021/04/30 06:10:14;;;;;;;9.75;8.85;;;9.40;1.00;;;;;;5052962;28;20044;-75
2021/04/30 06:12:42;;;;;;;11.98;9.45;;;9.30;1.00;;;;;;5046528;28;20032;-75
2021/04/30 06:15:08;;;;;;;9.98;9.05;;;9.50;1.00;;;;;;5046253;28;20112;-76
2021/04/30 06:17:34;;;;;;;9.50;8.50;;;9.30;1.00;;;;;;5042616;28;20547;-76
2021/04/30 06:19:59;;;;;;;8.60;7.80;;;9.50;1.00;;;;;;5043108;28;20220;-76
2021/04/30 06:22:25;;;;;;;8.57;7.78;;;9.50;99.90;;;;;;5045925;28;20053;-74
2021/04/30 06:24:51;;;;;;;8.90;8.00;;;9.20;99.90;;;;;;5051847;28;20435;-75
2021/04/30 06:27:17;;;;;;;10.88;8.85;;;9.20;1.00;;;;;;5032475;28;20490;-75
2021/04/30 06:29:42;;;;;;;10.35;9.35;;;9.20;1.00;;;;;;5048598;28;20029;-77
2021/04/30 06:32:08;;;;;;;9.95;8.65;;;9.20;99.90;;;;;;5047800;28;20036;-76
2021/04/30 06:34:34;;;;;;;12.95;9.60;;;9.30;1.00;;;;;;5050560;28;20079;-75
2021/04/30 06:36:59;;;;;;;10.18;8.88;;;9.30;1.00;;;;;;5048573;28;20056;-75
2021/04/30 06:39:25;;;;;;;9.45;8.55;;;9.20;1.00;;;;;;5048864;28;20029;-76
2021/04/30 06:41:51;;;;;;;9.60;8.40;;;9.30;1.00;;;;;;5047486;28;20111;-76
2021/04/30 06:44:17;;;;;;;10.27;8.50;;;9.00;3.50;;;;;;5046490;28;20021;-76
2021/04/30 06:46:43;;;;;;;11.30;9.18;;;8.80;49.90;;;;;;5047736;28;20021;-75
2021/04/30 06:49:08;;;;;;;10.90;8.18;;;9.00;11.50;;;;;;5041603;28;20369;-76
2021/04/30 06:51:34;;;;;;;9.82;8.82;;;8.90;90.40;;;;;;5045059;28;20033;-76
2021/04/30 06:54:01;;;;;;;13.68;9.18;;;8.70;99.90;;;;;;5061413;28;20029;-76
2021/04/30 06:56:30;;;;;;;13.82;8.93;;;8.80;99.90;;;;;;5060206;28;20056;-76
2021/04/30 06:58:57;;;;;;;8.90;8.05;;;9.00;1.00;;;;;;5046515;28;20025;-76
2021/04/30 07:01:23;;;;;;;11.65;8.93;;;9.00;1.00;;;;;;5047205;28;20029;-77
2021/04/30 07:03:50;;;;;;;9.52;8.52;;;8.80;99.90;;;;;;5038821;28;20028;-76
2021/04/30 07:06:18;;;;;;;8.98;8.18;;;8.90;56.10;;;;;;5040054;28;20060;-75
2021/04/30 07:08:43;;;;;;;11.13;9.15;;;8.90;81.30;;;;;;5040169;28;20061;-76
2021/04/30 07:11:10;;;;;;;9.93;9.00;;;8.80;99.90;;;;;;5044370;28;20040;-76
2021/04/30 07:13:36;;;;;;;10.35;8.98;;;8.90;54.00;;;;;;5030252;28;20123;-76
2021/04/30 07:16:03;;;;;;;9.38;8.48;;;8.80;99.90;;;;;;5043112;28;20029;-75
2021/04/30 07:18:28;;;;;;;8.95;8.15;;;9.00;61.20;;;;;;5050646;28;20029;-76
2021/04/30 07:20:54;;;;;;;9.30;8.32;;;9.20;1.00;;;;;;5049636;28;20025;-75
2021/04/30 07:23:20;;;;;;;9.60;8.70;;;9.20;11.30;;;;;;5045027;28;20029;-75
2021/04/30 07:25:46;;;;;;;10.02;8.90;;;9.30;1.00;;;;;;5044051;28;20029;-76
2021/04/30 07:28:11;;;;;;;13.82;8.77;;;9.30;1.00;;;;;;5049102;28;20036;-75
2021/04/30 07:30:37;;;;;;;11.88;8.40;;;9.30;1.00;;;;;;5049006;28;20374;-77
2021/04/30 07:33:03;;;;;;;9.48;8.10;;;9.30;38.00;;;;;;5055007;28;20021;-76
2021/04/30 07:35:28;;;;;;;10.85;8.77;;;9.20;99.90;;;;;;5061452;28;20060;-75
2021/04/30 07:37:54;;;;;;;8.98;8.18;;;9.40;44.30;;;;;;5053942;28;20029;-76
2021/04/30 07:40:20;;;;;;;11.45;8.80;;;9.60;15.60;;;;;;5049422;28;20030;-75
2021/04/30 07:42:45;;;;;;;8.65;7.85;;;9.10;99.90;;;;;;5070046;28;20040;-75
2021/04/30 07:45:12;;;;;;;9.40;7.95;;;9.10;99.90;;;;;;5061134;28;20084;-75
2021/04/30 07:47:37;;;;;;;11.00;8.95;;;9.20;99.90;;;;;;5071225;28;20033;-75
2021/04/30 07:50:04;;;;;;;9.82;8.73;;;9.10;99.90;;;;;;5042977;28;20560;-76
2021/04/30 07:52:30;;;;;;;9.27;8.38;;;8.90;99.90;;;;;;5040279;28;20504;-75
2021/04/30 07:54:56;;;;;;;10.32;9.23;;;8.90;99.90;;;;;;5043942;28;20044;-75
2021/04/30 07:57:21;;;;;;;10.40;9.30;;;8.80;1.00;;;;;;5044010;28;20021;-76
2021/04/30 07:59:47;;;;;;;9.63;8.73;;;8.90;99.90;;;;;;5037985;28;20105;-76
2021/04/30 08:02:13;;;;;;;9.73;8.82;;;8.80;99.90;;;;;;5047666;28;20100;-76
2021/04/30 08:04:38;;;;;;;9.38;8.48;;;9.10;99.90;;;;;;5044695;28;20062;-76
2021/04/30 08:07:04;;;;;;;9.45;8.55;;;9.10;99.90;;;;;;5051696;28;20025;-76
2021/04/30 08:09:30;;;;;;;10.13;9.15;;;8.90;99.90;;;;;;5053160;28;20080;-76
2021/04/30 08:11:56;;;;;;;9.85;8.85;;;9.20;99.90;;;;;;5054516;28;20021;-75
2021/04/30 08:14:21;;;;;;;9.52;8.57;;;9.30;99.90;;;;;;5050012;28;20119;-76
2021/04/30 08:16:47;;;;;;;9.75;8.85;;;9.60;99.90;;;;;;5050865;28;20025;-76
2021/04/30 08:19:12;;;;;;;9.73;8.68;;;9.40;99.90;;;;;;5045860;28;20025;-75
2021/04/30 08:21:38;;;;;;;9.80;8.80;;;9.10;99.90;;;;;;5048182;28;20025;-77
2021/04/30 08:24:04;;;;;;;10.23;9.23;;;8.90;99.90;;;;;;5041597;28;20048;-75
2021/04/30 08:26:30;;;;;;;11.00;9.10;;;9.00;99.90;;;;;;5047203;28;20029;-76
2021/04/30 08:28:56;;;;;;;9.10;8.25;;;9.00;99.90;;;;;;5046440;28;20056;-76
2021/04/30 08:31:23;;;;;;;10.15;8.20;;;9.40;99.90;;;;;;5047285;28;20393;-76
2021/04/30 08:33:50;;;;;;;9.52;8.63;;;9.50;99.90;;;;;;5047599;28;20040;-75
2021/04/30 08:36:16;;;;;;;11.68;8.73;;;9.70;71.70;;;;;;5048014;28;20053;-76
2021/04/30 08:38:42;;;;;;;14.20;8.25;;;9.50;26.70;;;;;;5052146;28;20051;-75
2021/04/30 08:41:09;;;;;;;11.70;9.48;;;9.30;99.90;;;;;;5044960;28;20068;-76
2021/04/30 08:43:37;;;;;;;9.30;8.40;;;9.10;99.90;;;;;;5049348;28;20071;-75
2021/04/30 08:46:04;;;;;;;10.10;8.45;;;9.50;99.90;;;;;;5043000;28;20025;-76
2021/04/30 08:48:32;;;;;;;9.73;8.73;;;9.60;97.90;;;;;;5041941;28;20022;-75
2021/04/30 08:50:58;;;;;;;8.38;7.57;;;9.80;45.10;;;;;;5045670;28;20029;-76
2021/04/30 08:53:24;;;;;;;10.90;9.75;;;9.90;1.00;;;;;;5043247;28;20060;-75
2021/04/30 08:55:51;;;;;;;12.02;9.27;;;9.90;1.00;;;;;;5049960;28;20029;-76
2021/04/30 08:58:27;;;;;;;9.15;8.35;;;9.90;1.00;;;;;;5047971;28;20033;-76
2021/04/30 09:00:54;;;;;;;10.38;9.38;;;9.70;1.00;;;;;;5052210;28;20523;-76
2021/04/30 09:03:22;;;;;;;10.70;9.30;;;9.70;99.90;;;;;;5043565;28;20025;-75
2021/04/30 09:05:51;;;;;;;14.65;9.35;;;9.50;99.90;;;;;;5050666;28;20025;-76
2021/04/30 09:08:17;;;;;;;10.30;9.40;;;9.30;99.90;;;;;;5048583;28;20032;-76
2021/04/30 09:10:49;;;;;;;13.95;10.15;;;9.10;1.00;;;;;;5039334;28;20127;-76
2021/04/30 09:13:16;;;;;;;;;;;9.10;1.00;;;;;;5036076;28;20032;-77
2021/04/30 09:15:44;;;;;;;11.50;9.38;;;9.20;99.90;;;;;;5045436;28;19909;-77
2021/04/30 09:18:25;;;;;;;10.07;9.07;;;9.10;99.90;;;;;;5054480;28;20036;-76
2021/04/30 09:20:52;;;;;;;11.13;10.02;;;9.10;99.90;;;;;;5043747;28;20026;-76
2021/04/30 09:23:46;;;;;;;12.55;10.57;;;9.00;1.00;;;;;;5042943;28;20051;-75
2021/04/30 09:26:31;;;;;;;10.82;9.70;;;9.00;1.00;;;;;;5042529;28;20053;-77
2021/04/30 09:29:03;;;;;;;12.15;10.75;;;9.10;1.00;;;;;;5039240;28;20021;-77
2021/04/30 09:31:36;;;;;;;12.25;11.05;;;9.00;1.00;;;;;;5036454;28;20120;-76
2021/04/30 09:34:28;;;;;;;12.63;11.32;;;8.90;1.00;;;;;;5056226;28;20433;-76
2021/04/30 09:37:14;;;;;;;16.52;11.13;;;8.90;1.00;;;;;;5044731;28;20033;-76
2021/04/30 09:39:59;;;;;;;12.25;11.05;;;9.00;1.00;;;;;;5075936;28;20029;-75
2021/04/30 09:42:27;;;;;;;12.48;10.98;;;9.10;1.00;;;;;;5056942;28;20043;-77
2021/04/30 09:44:56;;;;;;;17.80;10.68;;;9.00;9.50;;;;;;5061075;28;20036;-76
2021/04/30 09:47:25;;;;;;;11.93;10.73;;;9.10;1.00;;;;;;5050991;28;20017;-76
2021/04/30 09:49:54;;;;;;;12.13;10.43;;;9.10;1.00;;;;;;5066078;28;20040;-77
2021/04/30 09:52:22;;;;;;;12.70;11.48;;;9.20;1.00;;;;;;5062543;28;20097;-75
2021/04/30 09:54:48;;;;;;;14.25;11.20;;;9.00;27.10;;;;;;5050860;28;20018;-75
2021/04/30 09:57:19;;;;;;;17.52;11.82;;;9.00;44.80;;;;;;5059592;28;20052;-77
2021/04/30 09:59:55;;;;;;;;;;;8.90;75.70;;;;;;5052046;28;20040;-76
2021/04/30 10:02:29;;;;;;;14.57;12.38;;;8.80;92.60;;;;;;5059362;28;19893;-76
2021/04/30 10:05:06;;;;;;;14.95;12.43;;;8.80;99.90;;;;;;5061621;28;20025;-76
2021/04/30 10:07:33;;;;;;;15.07;12.77;;;8.90;99.80;;;;;;5059687;28;20018;-75
2021/04/30 10:10:14;;;;;;;23.13;12.52;;;9.00;99.60;;;;;;5062774;28;20021;-77
2021/04/30 10:12:45;;;;;;;12.43;11.20;;;8.90;99.90;;;;;;5056687;28;20099;-77
2021/04/30 10:15:12;;;;;;;13.68;12.23;;;8.80;99.90;;;;;;5057964;28;20033;-77
2021/04/30 10:17:38;;;;;;;14.02;12.52;;;8.80;99.90;;;;;;5051162;28;20107;-76
2021/04/30 10:20:06;;;;;;;13.32;12.02;;;8.80;99.90;;;;;;5059638;28;20045;-75
2021/04/30 10:22:35;;;;;;;14.38;12.88;;;9.00;99.90;;;;;;5057589;28;20083;-76
2021/04/30 10:25:06;;;;;;;15.50;12.98;;;8.90;99.90;;;;;;5057406;28;20101;-76
2021/04/30 10:27:36;;;;;;;13.70;12.35;;;8.90;99.90;;;;;;5061775;28;20016;-70
2021/04/30 10:30:12;;;;;;;15.90;14.30;;;9.00;99.90;;;;;;5064434;28;20024;-69
2021/04/30 10:32:52;;;;;;;14.68;13.13;;;9.00;99.90;;;;;;5063869;28;20287;-71
2021/04/30 10:35:27;;;;;;;16.15;14.43;;;9.00;99.90;;;;;;5069433;28;20002;-70
2021/04/30 10:37:55;;;;;;;16.63;13.65;;;8.80;99.90;;;;;;5076226;28;20029;-70
2021/04/30 10:40:20;;;;;;;15.43;13.38;;;8.70;99.90;;;;;;5070535;28;20072;-70
2021/04/30 10:42:46;;;;;;;17.02;15.15;;;8.50;99.90;;;;;;5072712;28;20017;-70
2021/04/30 10:45:15;;;;;;;15.75;14.05;;;8.40;99.90;;;;;;5066190;28;20014;-69
2021/04/30 10:47:42;;;;;;;17.83;15.95;;;8.50;99.90;;;;;;5063730;28;20026;-70
2021/04/30 10:50:09;;;;;;;19.30;17.10;;;8.50;99.90;;;;;;5061445;28;20017;-70
2021/04/30 10:52:34;;;;;;;29.55;15.77;;;8.40;99.90;;;;;;5077179;28;20197;-69
2021/04/30 10:55:03;;;;;;;17.02;15.27;;;8.40;99.90;;;;;;5061942;28;20040;-71
2021/04/30 10:57:44;;;;;;;15.60;13.77;;;8.20;99.90;;;;;;5065350;28;20028;-68
2021/04/30 11:00:11;;;;;;;17.55;15.80;;;8.10;99.90;;;;;;5067878;28;20031;-71
2021/04/30 11:02:38;;;;;;;18.38;16.50;;;8.10;99.90;;;;;;5066551;28;20036;-69
2021/04/30 11:05:07;;;;;;;21.63;17.83;;;8.10;99.90;;;;;;5062235;28;20020;-69
2021/04/30 11:07:34;;;;;;;19.58;17.17;;;8.00;99.90;;;;;;5064825;28;20022;-69
2021/04/30 11:10:00;;;;;;;17.70;15.75;;;8.00;99.90;;;;;;5063312;28;21220;-69
2021/04/30 11:12:27;;;;;;;18.80;16.80;;;7.90;99.90;;;;;;5068002;28;20033;-69
2021/04/30 11:15:04;;;;;;;16.05;13.68;;;7.90;99.90;;;;;;5069175;28;20013;-68
2021/04/30 11:17:56;;;;;;;19.40;16.45;;;7.80;99.90;;;;;;5076406;28;20025;-69
2021/04/30 11:20:22;;;;;;;;;;;7.70;99.90;;;;;;5071572;28;20071;-68
2021/04/30 11:23:13;;;;;;;19.45;17.55;;;7.70;99.90;;;;;;5060447;28;19908;-69
2021/04/30 11:26:05;;;;;;;23.42;16.08;;;7.80;99.90;;;;;;5061020;28;20065;-68
2021/04/30 11:28:31;;;;;;;21.10;16.90;;;8.00;99.90;;;;;;5060768;28;20093;-68
2021/04/30 11:31:10;;;;;;;22.60;16.23;;;8.00;99.90;;;;;;5062503;28;20041;-70
2021/04/30 11:33:44;;;;;;;16.70;15.00;;;7.90;99.90;;;;;;5060429;28;20026;-70
2021/04/30 11:36:12;;;;;;;16.73;15.02;;;7.90;99.90;;;;;;5066966;28;20025;-71
2021/04/30 11:38:46;;;;;;;18.88;15.02;;;7.70;99.90;;;;;;5057349;28;20397;-70
2021/04/30 11:41:13;;;;;;;17.65;15.75;;;7.60;99.90;;;;;;5050748;28;20539;-72
2021/04/30 11:43:41;;;;;;;15.25;13.75;;;7.60;99.90;;;;;;5058447;28;20075;-71
2021/04/30 11:46:08;;;;;;;14.90;13.40;;;7.60;99.90;;;;;;5048582;28;20030;-71
2021/04/30 11:48:34;;;;;;;16.02;14.32;;;7.40;99.90;;;;;;5063052;22;20045;-73
2021/04/30 11:51:04;;;;;;;16.75;14.95;;;7.40;99.90;;;;;;5036563;28;20397;-73
2021/04/30 11:53:31;;;;;;;14.70;11.60;;;7.40;99.90;;;;;;5025854;28;20104;-73
2021/04/30 11:55:57;;;;;;;17.10;13.57;;;7.40;99.90;;;;;;5033427;28;20400;-73
2021/04/30 11:58:58;;;;;;;14.52;13.07;;;7.10;99.90;;;;;;5028354;28;20060;-75
2021/04/30 12:01:26;;;;;;;16.33;13.35;;;7.20;99.90;;;;;;5012317;28;20034;-73
2021/04/30 12:03:55;;;;;;;15.60;14.10;;;7.10;99.90;;;;;;5034258;28;20140;-75
2021/04/30 12:06:25;;;;;;;17.45;15.60;;;7.10;99.90;;;;;;5043762;28;20018;-74
2021/04/30 12:08:53;;;;;;;17.70;13.40;;;7.10;1.00;;;;;;5042468;28;20042;-74
2021/04/30 12:11:27;;;;;;;15.73;13.88;;;7.20;99.90;;;;;;5040308;28;20060;-72
2021/04/30 12:13:54;;;;;;;19.67;14.07;;;7.10;99.90;;;;;;5048577;28;20042;-75
2021/04/30 12:16:20;;;;;;;17.40;13.75;;;7.10;99.90;;;;;;5047240;28;20022;-73
2021/04/30 12:18:47;;;;;;;15.60;14.05;;;7.00;99.90;;;;;;5018682;28;20440;-73
2021/04/30 12:21:31;;;;;;;17.80;14.20;;;7.00;1.00;;;;;;5029074;28;20021;-73
2021/04/30 12:23:58;;;;;;;17.75;12.95;;;7.00;1.00;;;;;;5028122;28;20441;-74
2021/04/30 12:26:32;;;;;;;15.10;13.57;;;6.90;1.00;;;;;;5027107;28;20042;-73
2021/04/30 12:29:00;;;;;;;13.45;12.13;;;7.00;1.00;;;;;;5035913;28;20104;-73
2021/04/30 12:31:27;;;;;;;14.85;13.38;;;6.90;1.00;;;;;;5016288;28;20029;-72
2021/04/30 12:33:54;;;;;;;13.63;12.32;;;6.90;1.00;;;;;;5027861;28;20025;-71
2021/04/30 12:36:25;;;;;;;15.45;12.35;;;7.00;1.00;;;;;;5039827;28;20112;-74
2021/04/30 12:38:54;;;;;;;16.98;14.45;;;7.10;1.00;;;;;;5024634;28;20080;-74
2021/04/30 12:41:27;;;;;;;15.30;13.77;;;7.20;1.00;;;;;;5026668;28;20033;-73
2021/04/30 12:43:57;;;;;;;17.73;13.98;;;7.30;1.00;;;;;;5027533;28;20087;-73
2021/04/30 12:46:27;;;;;;;15.07;13.43;;;7.50;1.00;;;;;;5037969;28;20021;-74
2021/04/30 12:48:55;;;;;;;13.90;12.50;;;7.70;1.00;;;;;;5033161;28;20037;-73
2021/04/30 12:51:29;;;;;;;13.68;12.25;;;7.70;1.00;;;;;;5030233;28;20036;-74
2021/04/30 12:53:55;;;;;;;13.90;12.50;;;8.20;99.90;;;;;;5030702;28;20083;-72
2021/04/30 12:56:28;;;;;;;14.15;12.00;;;8.00;99.90;;;;;;5034380;28;20021;-72